sensor_id;sensor_type;location;lat;lon;timestamp;temperature;humidity
74224;SHT31;62585;49.706;18.216;2023-12-20T00:01:03;7.03;56.22
74224;SHT31;62585;49.706;18.216;2023-12-20T00:03:40;7.12;55.40
74224;SHT31;62585;49.706;18.216;2023-12-20T00:06:07;7.12;55.72
74224;SHT31;62585;49.706;18.216;2023-12-20T00:08:33;7.09;56.13
74224;SHT31;62585;49.706;18.216;2023-12-20T00:10:59;7.16;55.86
74224;SHT31;62585;49.706;18.216;2023-12-20T00:13:25;7.16;55.51
74224;SHT31;62585;49.706;18.216;2023-12-20T00:15:51;7.17;55.13
74224;SHT31;62585;49.706;18.216;2023-12-20T00:18:16;7.16;54.98
74224;SHT31;62585;49.706;18.216;2023-12-20T00:20:42;7.24;55.12
74224;SHT31;62585;49.706;18.216;2023-12-20T00:23:08;7.22;55.06
74224;SHT31;62585;49.706;18.216;2023-12-20T00:25:34;7.10;55.08
74224;SHT31;62585;49.706;18.216;2023-12-20T00:28:00;7.16;55.72
74224;SHT31;62585;49.706;18.216;2023-12-20T00:30:28;7.07;56.03
74224;SHT31;62585;49.706;18.216;2023-12-20T00:32:54;7.00;56.17
74224;SHT31;62585;49.706;18.216;2023-12-20T00:35:20;7.00;56.57
74224;SHT31;62585;49.706;18.216;2023-12-20T00:37:46;6.78;57.47
74224;SHT31;62585;49.706;18.216;2023-12-20T00:40:12;6.68;58.10
74224;SHT31;62585;49.706;18.216;2023-12-20T00:42:38;6.67;58.60
74224;SHT31;62585;49.706;18.216;2023-12-20T00:45:04;6.64;58.70
74224;SHT31;62585;49.706;18.216;2023-12-20T00:47:33;6.65;57.93
74224;SHT31;62585;49.706;18.216;2023-12-20T00:49:59;6.64;58.71
74224;SHT31;62585;49.706;18.216;2023-12-20T00:52:25;6.55;58.43
74224;SHT31;62585;49.706;18.216;2023-12-20T00:54:51;6.54;58.68
74224;SHT31;62585;49.706;18.216;2023-12-20T00:57:17;6.59;58.42
74224;SHT31;62585;49.706;18.216;2023-12-20T00:59:43;6.61;58.54
74224;SHT31;62585;49.706;18.216;2023-12-20T01:02:09;6.63;58.33
74224;SHT31;62585;49.706;18.216;2023-12-20T01:04:35;6.64;58.31
74224;SHT31;62585;49.706;18.216;2023-12-20T01:07:01;6.71;57.85
74224;SHT31;62585;49.706;18.216;2023-12-20T01:09:28;6.67;57.94
74224;SHT31;62585;49.706;18.216;2023-12-20T01:11:53;6.84;57.94
74224;SHT31;62585;49.706;18.216;2023-12-20T01:14:19;6.91;57.46
74224;SHT31;62585;49.706;18.216;2023-12-20T01:16:45;6.86;56.93
74224;SHT31;62585;49.706;18.216;2023-12-20T01:19:12;6.88;57.01
74224;SHT31;62585;49.706;18.216;2023-12-20T01:21:39;6.89;56.74
74224;SHT31;62585;49.706;18.216;2023-12-20T01:24:05;6.89;56.50
74224;SHT31;62585;49.706;18.216;2023-12-20T01:26:31;6.98;56.39
74224;SHT31;62585;49.706;18.216;2023-12-20T01:28:57;6.98;56.02
74224;SHT31;62585;49.706;18.216;2023-12-20T01:31:23;6.98;56.15
74224;SHT31;62585;49.706;18.216;2023-12-20T01:33:49;7.13;55.82
74224;SHT31;62585;49.706;18.216;2023-12-20T01:36:15;7.20;55.49
74224;SHT31;62585;49.706;18.216;2023-12-20T01:38:41;7.22;55.61
74224;SHT31;62585;49.706;18.216;2023-12-20T01:41:07;7.06;55.87
74224;SHT31;62585;49.706;18.216;2023-12-20T01:43:33;6.98;55.91
74224;SHT31;62585;49.706;18.216;2023-12-20T01:45:59;6.88;55.83
74224;SHT31;62585;49.706;18.216;2023-12-20T01:48:26;6.82;56.24
74224;SHT31;62585;49.706;18.216;2023-12-20T01:50:54;6.84;55.54
74224;SHT31;62585;49.706;18.216;2023-12-20T01:53:21;6.79;55.74
74224;SHT31;62585;49.706;18.216;2023-12-20T01:55:50;6.65;55.97
74224;SHT31;62585;49.706;18.216;2023-12-20T01:58:18;6.72;56.51
74224;SHT31;62585;49.706;18.216;2023-12-20T02:00:44;6.74;56.05
74224;SHT31;62585;49.706;18.216;2023-12-20T02:03:11;6.69;56.36
74224;SHT31;62585;49.706;18.216;2023-12-20T02:05:37;6.67;56.31
74224;SHT31;62585;49.706;18.216;2023-12-20T02:08:04;6.67;56.11
74224;SHT31;62585;49.706;18.216;2023-12-20T02:13:06;6.58;56.49
74224;SHT31;62585;49.706;18.216;2023-12-20T02:15:32;6.64;55.96
74224;SHT31;62585;49.706;18.216;2023-12-20T02:17:58;6.65;55.77
74224;SHT31;62585;49.706;18.216;2023-12-20T02:20:25;6.69;56.03
74224;SHT31;62585;49.706;18.216;2023-12-20T02:22:50;6.69;56.07
74224;SHT31;62585;49.706;18.216;2023-12-20T02:25:16;6.71;56.32
74224;SHT31;62585;49.706;18.216;2023-12-20T02:27:42;6.74;56.69
74224;SHT31;62585;49.706;18.216;2023-12-20T02:30:08;6.65;56.50
74224;SHT31;62585;49.706;18.216;2023-12-20T02:32:34;6.68;56.83
74224;SHT31;62585;49.706;18.216;2023-12-20T02:35:00;6.63;57.23
74224;SHT31;62585;49.706;18.216;2023-12-20T02:37:26;6.55;57.26
74224;SHT31;62585;49.706;18.216;2023-12-20T02:39:52;6.52;57.69
74224;SHT31;62585;49.706;18.216;2023-12-20T02:42:18;6.45;58.06
74224;SHT31;62585;49.706;18.216;2023-12-20T02:44:43;6.33;58.65
74224;SHT31;62585;49.706;18.216;2023-12-20T02:47:10;6.17;58.64
74224;SHT31;62585;49.706;18.216;2023-12-20T02:49:35;6.19;58.93
74224;SHT31;62585;49.706;18.216;2023-12-20T02:52:01;6.26;59.11
74224;SHT31;62585;49.706;18.216;2023-12-20T02:54:27;6.24;59.16
74224;SHT31;62585;49.706;18.216;2023-12-20T02:56:53;6.31;58.73
74224;SHT31;62585;49.706;18.216;2023-12-20T02:59:19;6.27;59.13
74224;SHT31;62585;49.706;18.216;2023-12-20T03:01:45;6.20;59.17
74224;SHT31;62585;49.706;18.216;2023-12-20T03:04:11;6.21;58.85
74224;SHT31;62585;49.706;18.216;2023-12-20T03:06:38;6.26;59.16
74224;SHT31;62585;49.706;18.216;2023-12-20T03:09:04;6.34;58.86
74224;SHT31;62585;49.706;18.216;2023-12-20T03:11:30;6.36;58.90
74224;SHT31;62585;49.706;18.216;2023-12-20T03:13:57;6.31;58.81
74224;SHT31;62585;49.706;18.216;2023-12-20T03:16:23;6.34;59.66
74224;SHT31;62585;49.706;18.216;2023-12-20T03:18:49;6.42;59.50
74224;SHT31;62585;49.706;18.216;2023-12-20T03:21:15;6.45;60.21
74224;SHT31;62585;49.706;18.216;2023-12-20T03:23:41;6.38;61.17
74224;SHT31;62585;49.706;18.216;2023-12-20T03:26:08;6.54;61.20
74224;SHT31;62585;49.706;18.216;2023-12-20T03:28:34;6.48;61.74
74224;SHT31;62585;49.706;18.216;2023-12-20T03:31:00;6.48;62.17
74224;SHT31;62585;49.706;18.216;2023-12-20T03:33:27;6.41;63.89
74224;SHT31;62585;49.706;18.216;2023-12-20T03:35:53;6.45;66.31
74224;SHT31;62585;49.706;18.216;2023-12-20T03:38:19;6.27;67.55
74224;SHT31;62585;49.706;18.216;2023-12-20T03:40:45;6.17;68.57
74224;SHT31;62585;49.706;18.216;2023-12-20T03:43:10;5.89;70.06
74224;SHT31;62585;49.706;18.216;2023-12-20T03:45:36;5.79;70.64
74224;SHT31;62585;49.706;18.216;2023-12-20T03:48:02;5.61;72.22
74224;SHT31;62585;49.706;18.216;2023-12-20T03:50:28;5.48;73.04
74224;SHT31;62585;49.706;18.216;2023-12-20T03:52:54;5.37;73.05
74224;SHT31;62585;49.706;18.216;2023-12-20T03:55:20;5.24;75.03
74224;SHT31;62585;49.706;18.216;2023-12-20T03:57:46;5.31;75.53
74224;SHT31;62585;49.706;18.216;2023-12-20T04:00:12;5.17;75.87
74224;SHT31;62585;49.706;18.216;2023-12-20T04:02:38;5.13;75.77
74224;SHT31;62585;49.706;18.216;2023-12-20T04:05:06;5.06;76.87
74224;SHT31;62585;49.706;18.216;2023-12-20T04:07:32;5.06;75.54
74224;SHT31;62585;49.706;18.216;2023-12-20T04:09:58;4.97;76.95
74224;SHT31;62585;49.706;18.216;2023-12-20T04:12:24;4.82;77.58
74224;SHT31;62585;49.706;18.216;2023-12-20T04:14:50;4.80;77.52
74224;SHT31;62585;49.706;18.216;2023-12-20T04:17:16;4.75;77.75
74224;SHT31;62585;49.706;18.216;2023-12-20T04:19:42;4.80;77.82
74224;SHT31;62585;49.706;18.216;2023-12-20T04:22:08;4.89;78.44
74224;SHT31;62585;49.706;18.216;2023-12-20T04:24:35;4.97;77.09
74224;SHT31;62585;49.706;18.216;2023-12-20T04:27:01;4.97;76.98
74224;SHT31;62585;49.706;18.216;2023-12-20T04:29:27;4.96;77.28
74224;SHT31;62585;49.706;18.216;2023-12-20T04:31:53;4.95;76.83
74224;SHT31;62585;49.706;18.216;2023-12-20T04:34:20;5.00;77.68
74224;SHT31;62585;49.706;18.216;2023-12-20T04:36:46;4.97;77.80
74224;SHT31;62585;49.706;18.216;2023-12-20T04:39:13;4.99;78.33
74224;SHT31;62585;49.706;18.216;2023-12-20T04:41:39;4.90;78.21
74224;SHT31;62585;49.706;18.216;2023-12-20T04:44:05;4.89;78.73
74224;SHT31;62585;49.706;18.216;2023-12-20T04:46:31;4.99;79.29
74224;SHT31;62585;49.706;18.216;2023-12-20T04:48:58;5.06;78.41
74224;SHT31;62585;49.706;18.216;2023-12-20T04:51:24;5.17;78.65
74224;SHT31;62585;49.706;18.216;2023-12-20T04:53:50;5.14;78.37
74224;SHT31;62585;49.706;18.216;2023-12-20T04:56:16;5.13;79.30
74224;SHT31;62585;49.706;18.216;2023-12-20T04:58:42;5.09;79.18
74224;SHT31;62585;49.706;18.216;2023-12-20T05:01:09;5.23;79.49
74224;SHT31;62585;49.706;18.216;2023-12-20T05:03:35;5.16;79.33
74224;SHT31;62585;49.706;18.216;2023-12-20T05:06:01;5.10;79.75
74224;SHT31;62585;49.706;18.216;2023-12-20T05:08:27;5.19;80.68
74224;SHT31;62585;49.706;18.216;2023-12-20T05:10:54;5.12;80.19
74224;SHT31;62585;49.706;18.216;2023-12-20T05:13:20;5.13;80.37
74224;SHT31;62585;49.706;18.216;2023-12-20T05:15:46;5.16;80.33
74224;SHT31;62585;49.706;18.216;2023-12-20T05:18:13;5.12;80.13
74224;SHT31;62585;49.706;18.216;2023-12-20T05:20:39;5.00;80.79
74224;SHT31;62585;49.706;18.216;2023-12-20T05:23:05;5.03;80.98
74224;SHT31;62585;49.706;18.216;2023-12-20T05:25:31;5.01;81.34
74224;SHT31;62585;49.706;18.216;2023-12-20T05:27:57;5.03;81.19
74224;SHT31;62585;49.706;18.216;2023-12-20T05:30:23;5.01;82.24
74224;SHT31;62585;49.706;18.216;2023-12-20T05:32:48;4.90;82.80
74224;SHT31;62585;49.706;18.216;2023-12-20T05:35:14;4.85;83.53
74224;SHT31;62585;49.706;18.216;2023-12-20T05:37:41;4.68;84.14
74224;SHT31;62585;49.706;18.216;2023-12-20T05:40:07;4.64;84.65
74224;SHT31;62585;49.706;18.216;2023-12-20T05:42:37;4.41;85.49
74224;SHT31;62585;49.706;18.216;2023-12-20T05:45:06;4.34;85.49
74224;SHT31;62585;49.706;18.216;2023-12-20T05:47:32;4.20;85.58
74224;SHT31;62585;49.706;18.216;2023-12-20T05:49:57;4.10;85.88
74224;SHT31;62585;49.706;18.216;2023-12-20T05:52:26;4.16;85.83
74224;SHT31;62585;49.706;18.216;2023-12-20T05:54:52;4.18;85.56
74224;SHT31;62585;49.706;18.216;2023-12-20T05:57:18;4.10;85.83
74224;SHT31;62585;49.706;18.216;2023-12-20T05:59:43;4.07;86.45
74224;SHT31;62585;49.706;18.216;2023-12-20T06:02:09;4.03;86.66
74224;SHT31;62585;49.706;18.216;2023-12-20T06:04:35;3.93;86.79
74224;SHT31;62585;49.706;18.216;2023-12-20T06:07:02;3.99;86.74
74224;SHT31;62585;49.706;18.216;2023-12-20T06:09:28;4.08;86.29
74224;SHT31;62585;49.706;18.216;2023-12-20T06:11:54;4.08;86.52
74224;SHT31;62585;49.706;18.216;2023-12-20T06:14:20;4.20;85.95
74224;SHT31;62585;49.706;18.216;2023-12-20T06:16:46;4.22;85.53
74224;SHT31;62585;49.706;18.216;2023-12-20T06:19:12;4.21;86.09
74224;SHT31;62585;49.706;18.216;2023-12-20T06:21:38;4.21;86.38
74224;SHT31;62585;49.706;18.216;2023-12-20T06:24:04;4.30;85.82
74224;SHT31;62585;49.706;18.216;2023-12-20T06:26:30;4.33;86.07
74224;SHT31;62585;49.706;18.216;2023-12-20T06:28:55;4.27;86.52
74224;SHT31;62585;49.706;18.216;2023-12-20T06:31:21;4.42;86.40
74224;SHT31;62585;49.706;18.216;2023-12-20T06:33:47;4.34;86.26
74224;SHT31;62585;49.706;18.216;2023-12-20T06:36:15;4.45;86.34
74224;SHT31;62585;49.706;18.216;2023-12-20T06:38:41;4.38;86.02
74224;SHT31;62585;49.706;18.216;2023-12-20T06:41:08;4.38;85.65
74224;SHT31;62585;49.706;18.216;2023-12-20T06:43:33;4.33;85.04
74224;SHT31;62585;49.706;18.216;2023-12-20T06:46:03;4.36;85.80
74224;SHT31;62585;49.706;18.216;2023-12-20T06:48:29;4.40;85.53
74224;SHT31;62585;49.706;18.216;2023-12-20T06:50:55;4.52;84.86
74224;SHT31;62585;49.706;18.216;2023-12-20T06:53:20;4.42;85.34
74224;SHT31;62585;49.706;18.216;2023-12-20T06:55:46;4.45;85.89
74224;SHT31;62585;49.706;18.216;2023-12-20T06:58:12;4.55;85.54
74224;SHT31;62585;49.706;18.216;2023-12-20T07:00:38;4.44;86.23
74224;SHT31;62585;49.706;18.216;2023-12-20T07:03:04;4.34;86.58
74224;SHT31;62585;49.706;18.216;2023-12-20T07:05:30;4.49;86.26
74224;SHT31;62585;49.706;18.216;2023-12-20T07:07:55;4.56;86.13
74224;SHT31;62585;49.706;18.216;2023-12-20T07:10:21;4.61;86.21
74224;SHT31;62585;49.706;18.216;2023-12-20T07:12:47;4.54;85.76
74224;SHT31;62585;49.706;18.216;2023-12-20T07:15:14;4.54;86.41
74224;SHT31;62585;49.706;18.216;2023-12-20T07:17:40;4.73;85.92
74224;SHT31;62585;49.706;18.216;2023-12-20T07:20:07;4.71;85.77
74224;SHT31;62585;49.706;18.216;2023-12-20T07:22:35;4.89;85.66
74224;SHT31;62585;49.706;18.216;2023-12-20T07:25:01;4.92;85.38
74224;SHT31;62585;49.706;18.216;2023-12-20T07:27:27;4.89;85.67
74224;SHT31;62585;49.706;18.216;2023-12-20T07:29:53;5.03;85.53
74224;SHT31;62585;49.706;18.216;2023-12-20T07:32:19;5.07;85.35
74224;SHT31;62585;49.706;18.216;2023-12-20T07:34:45;5.07;85.53
74224;SHT31;62585;49.706;18.216;2023-12-20T07:37:11;5.19;85.05
74224;SHT31;62585;49.706;18.216;2023-12-20T07:39:39;5.13;85.06
74224;SHT31;62585;49.706;18.216;2023-12-20T07:42:05;5.17;85.45
74224;SHT31;62585;49.706;18.216;2023-12-20T07:44:31;5.12;85.12
74224;SHT31;62585;49.706;18.216;2023-12-20T07:46:57;5.28;84.97
74224;SHT31;62585;49.706;18.216;2023-12-20T07:49:24;5.17;84.79
74224;SHT31;62585;49.706;18.216;2023-12-20T07:51:49;5.16;85.44
74224;SHT31;62585;49.706;18.216;2023-12-20T07:54:16;5.31;85.47
74224;SHT31;62585;49.706;18.216;2023-12-20T07:56:41;5.40;85.45
74224;SHT31;62585;49.706;18.216;2023-12-20T07:59:07;5.38;85.03
74224;SHT31;62585;49.706;18.216;2023-12-20T08:01:33;5.43;85.31
74224;SHT31;62585;49.706;18.216;2023-12-20T08:03:59;5.41;85.38
74224;SHT31;62585;49.706;18.216;2023-12-20T08:06:25;5.34;85.42
74224;SHT31;62585;49.706;18.216;2023-12-20T08:08:51;5.52;84.76
74224;SHT31;62585;49.706;18.216;2023-12-20T08:11:17;5.33;84.72
74224;SHT31;62585;49.706;18.216;2023-12-20T08:13:43;5.38;85.57
74224;SHT31;62585;49.706;18.216;2023-12-20T08:16:08;5.41;85.63
74224;SHT31;62585;49.706;18.216;2023-12-20T08:18:35;5.33;85.32
74224;SHT31;62585;49.706;18.216;2023-12-20T08:21:01;5.44;85.07
74224;SHT31;62585;49.706;18.216;2023-12-20T08:23:27;5.24;85.90
74224;SHT31;62585;49.706;18.216;2023-12-20T08:25:53;5.24;86.32
74224;SHT31;62585;49.706;18.216;2023-12-20T08:28:19;5.30;85.84
74224;SHT31;62585;49.706;18.216;2023-12-20T08:30:45;5.34;86.05
74224;SHT31;62585;49.706;18.216;2023-12-20T08:33:11;5.27;85.91
74224;SHT31;62585;49.706;18.216;2023-12-20T08:35:41;5.44;85.81
74224;SHT31;62585;49.706;18.216;2023-12-20T08:38:07;5.55;85.79
74224;SHT31;62585;49.706;18.216;2023-12-20T08:40:33;5.50;85.64
74224;SHT31;62585;49.706;18.216;2023-12-20T08:42:59;5.52;86.05
74224;SHT31;62585;49.706;18.216;2023-12-20T08:45:24;5.34;86.19
74224;SHT31;62585;49.706;18.216;2023-12-20T08:47:50;5.45;85.92
74224;SHT31;62585;49.706;18.216;2023-12-20T08:50:16;5.47;85.78
74224;SHT31;62585;49.706;18.216;2023-12-20T08:52:42;5.37;86.00
74224;SHT31;62585;49.706;18.216;2023-12-20T08:55:08;5.24;86.60
74224;SHT31;62585;49.706;18.216;2023-12-20T08:57:36;5.27;86.62
74224;SHT31;62585;49.706;18.216;2023-12-20T09:00:02;5.23;86.52
74224;SHT31;62585;49.706;18.216;2023-12-20T09:02:29;5.19;86.73
74224;SHT31;62585;49.706;18.216;2023-12-20T09:04:54;5.28;86.91
74224;SHT31;62585;49.706;18.216;2023-12-20T09:07:25;5.22;86.74
74224;SHT31;62585;49.706;18.216;2023-12-20T09:09:51;5.26;87.17
74224;SHT31;62585;49.706;18.216;2023-12-20T09:12:21;5.23;87.01
74224;SHT31;62585;49.706;18.216;2023-12-20T09:14:48;5.37;87.18
74224;SHT31;62585;49.706;18.216;2023-12-20T09:17:14;5.47;86.32
74224;SHT31;62585;49.706;18.216;2023-12-20T09:19:40;5.44;86.56
74224;SHT31;62585;49.706;18.216;2023-12-20T09:22:06;5.44;86.66
74224;SHT31;62585;49.706;18.216;2023-12-20T09:24:33;5.20;86.95
74224;SHT31;62585;49.706;18.216;2023-12-20T09:26:59;5.28;86.75
74224;SHT31;62585;49.706;18.216;2023-12-20T09:29:24;5.24;87.22
74224;SHT31;62585;49.706;18.216;2023-12-20T09:31:50;5.26;86.96
74224;SHT31;62585;49.706;18.216;2023-12-20T09:34:16;5.20;87.11
74224;SHT31;62585;49.706;18.216;2023-12-20T09:36:45;5.03;87.33
74224;SHT31;62585;49.706;18.216;2023-12-20T09:39:19;5.04;87.72
74224;SHT31;62585;49.706;18.216;2023-12-20T09:41:56;4.83;87.97
74224;SHT31;62585;49.706;18.216;2023-12-20T09:44:25;4.65;88.82
74224;SHT31;62585;49.706;18.216;2023-12-20T09:46:52;4.69;88.83
74224;SHT31;62585;49.706;18.216;2023-12-20T09:49:20;4.93;88.84
74224;SHT31;62585;49.706;18.216;2023-12-20T09:51:47;4.96;88.11
74224;SHT31;62585;49.706;18.216;2023-12-20T09:54:14;4.92;87.98
74224;SHT31;62585;49.706;18.216;2023-12-20T09:56:41;4.90;88.05
74224;SHT31;62585;49.706;18.216;2023-12-20T09:59:07;4.92;87.61
74224;SHT31;62585;49.706;18.216;2023-12-20T10:01:34;4.80;88.11
74224;SHT31;62585;49.706;18.216;2023-12-20T10:04:01;4.64;88.07
74224;SHT31;62585;49.706;18.216;2023-12-20T10:06:32;4.55;88.88
74224;SHT31;62585;49.706;18.216;2023-12-20T10:08:58;4.73;88.44
74224;SHT31;62585;49.706;18.216;2023-12-20T10:11:24;4.64;88.96
74224;SHT31;62585;49.706;18.216;2023-12-20T10:13:50;4.66;88.49
74224;SHT31;62585;49.706;18.216;2023-12-20T10:16:16;4.76;88.46
74224;SHT31;62585;49.706;18.216;2023-12-20T10:18:42;4.62;88.33
74224;SHT31;62585;49.706;18.216;2023-12-20T10:21:08;4.77;88.76
74224;SHT31;62585;49.706;18.216;2023-12-20T10:23:35;4.76;88.63
74224;SHT31;62585;49.706;18.216;2023-12-20T10:26:02;4.87;88.57
74224;SHT31;62585;49.706;18.216;2023-12-20T10:28:33;4.83;88.26
74224;SHT31;62585;49.706;18.216;2023-12-20T10:31:00;4.71;87.94
74224;SHT31;62585;49.706;18.216;2023-12-20T10:33:30;4.59;88.59
74224;SHT31;62585;49.706;18.216;2023-12-20T10:35:58;4.65;88.76
74224;SHT31;62585;49.706;18.216;2023-12-20T10:38:23;4.65;88.60
74224;SHT31;62585;49.706;18.216;2023-12-20T10:40:54;4.54;89.00
74224;SHT31;62585;49.706;18.216;2023-12-20T10:43:22;4.58;89.22
74224;SHT31;62585;49.706;18.216;2023-12-20T10:45:52;4.66;88.82
74224;SHT31;62585;49.706;18.216;2023-12-20T10:48:18;4.64;88.74
74224;SHT31;62585;49.706;18.216;2023-12-20T10:50:45;4.64;88.50
74224;SHT31;62585;49.706;18.216;2023-12-20T10:53:11;4.71;88.00
74224;SHT31;62585;49.706;18.216;2023-12-20T10:55:38;4.73;87.97
74224;SHT31;62585;49.706;18.216;2023-12-20T10:58:07;4.75;87.86
74224;SHT31;62585;49.706;18.216;2023-12-20T11:00:39;4.68;88.49
74224;SHT31;62585;49.706;18.216;2023-12-20T11:03:08;4.62;87.98
74224;SHT31;62585;49.706;18.216;2023-12-20T11:05:46;4.56;88.12
74224;SHT31;62585;49.706;18.216;2023-12-20T11:08:28;4.54;88.08
74224;SHT31;62585;49.706;18.216;2023-12-20T11:11:04;4.56;87.87
74224;SHT31;62585;49.706;18.216;2023-12-20T11:13:40;4.55;87.62
74224;SHT31;62585;49.706;18.216;2023-12-20T11:16:07;4.64;87.88
74224;SHT31;62585;49.706;18.216;2023-12-20T11:18:33;4.71;88.02
74224;SHT31;62585;49.706;18.216;2023-12-20T11:21:04;4.71;88.11
74224;SHT31;62585;49.706;18.216;2023-12-20T11:23:32;4.65;88.37
74224;SHT31;62585;49.706;18.216;2023-12-20T11:26:01;4.75;88.10
74224;SHT31;62585;49.706;18.216;2023-12-20T11:28:28;4.89;87.71
74224;SHT31;62585;49.706;18.216;2023-12-20T11:30:57;4.77;87.66
74224;SHT31;62585;49.706;18.216;2023-12-20T11:33:36;4.72;88.37
74224;SHT31;62585;49.706;18.216;2023-12-20T11:36:03;4.77;88.09
74224;SHT31;62585;49.706;18.216;2023-12-20T11:38:38;4.82;87.60
74224;SHT31;62585;49.706;18.216;2023-12-20T11:41:07;4.72;88.07
74224;SHT31;62585;49.706;18.216;2023-12-20T11:43:37;4.68;87.96
74224;SHT31;62585;49.706;18.216;2023-12-20T11:46:04;4.73;87.83
74224;SHT31;62585;49.706;18.216;2023-12-20T11:48:38;4.62;88.42
74224;SHT31;62585;49.706;18.216;2023-12-20T11:51:11;4.66;88.49
74224;SHT31;62585;49.706;18.216;2023-12-20T11:53:38;4.58;88.24
74224;SHT31;62585;49.706;18.216;2023-12-20T11:56:06;4.65;88.25
74224;SHT31;62585;49.706;18.216;2023-12-20T11:58:33;4.65;88.20
74224;SHT31;62585;49.706;18.216;2023-12-20T12:00:59;4.72;87.66
74224;SHT31;62585;49.706;18.216;2023-12-20T12:03:25;4.69;87.74
74224;SHT31;62585;49.706;18.216;2023-12-20T12:05:51;4.76;87.67
74224;SHT31;62585;49.706;18.216;2023-12-20T12:08:17;4.83;87.39
74224;SHT31;62585;49.706;18.216;2023-12-20T12:10:44;4.82;87.35
74224;SHT31;62585;49.706;18.216;2023-12-20T12:13:10;4.82;87.39
74224;SHT31;62585;49.706;18.216;2023-12-20T12:15:37;4.75;87.06
74224;SHT31;62585;49.706;18.216;2023-12-20T12:18:03;4.76;87.66
74224;SHT31;62585;49.706;18.216;2023-12-20T12:20:30;4.82;87.60
74224;SHT31;62585;49.706;18.216;2023-12-20T12:23:05;4.90;87.58
74224;SHT31;62585;49.706;18.216;2023-12-20T12:25:35;4.93;86.94
74224;SHT31;62585;49.706;18.216;2023-12-20T12:28:01;5.04;86.58
74224;SHT31;62585;49.706;18.216;2023-12-20T12:30:28;5.10;86.16
74224;SHT31;62585;49.706;18.216;2023-12-20T12:32:55;5.04;86.36
74224;SHT31;62585;49.706;18.216;2023-12-20T12:35:21;4.97;86.49
74224;SHT31;62585;49.706;18.216;2023-12-20T12:37:47;4.97;86.72
74224;SHT31;62585;49.706;18.216;2023-12-20T12:40:16;4.97;86.56
74224;SHT31;62585;49.706;18.216;2023-12-20T12:42:43;5.14;86.43
74224;SHT31;62585;49.706;18.216;2023-12-20T12:45:10;4.99;85.90
74224;SHT31;62585;49.706;18.216;2023-12-20T12:47:40;4.90;86.36
74224;SHT31;62585;49.706;18.216;2023-12-20T12:50:06;5.01;86.01
74224;SHT31;62585;49.706;18.216;2023-12-20T12:52:32;4.87;86.29
74224;SHT31;62585;49.706;18.216;2023-12-20T12:54:58;5.00;86.51
74224;SHT31;62585;49.706;18.216;2023-12-20T12:57:24;4.96;86.27
74224;SHT31;62585;49.706;18.216;2023-12-20T12:59:50;4.90;86.02
74224;SHT31;62585;49.706;18.216;2023-12-20T13:02:16;4.96;86.47
74224;SHT31;62585;49.706;18.216;2023-12-20T13:04:42;4.89;86.47
74224;SHT31;62585;49.706;18.216;2023-12-20T13:07:09;4.79;86.61
74224;SHT31;62585;49.706;18.216;2023-12-20T13:09:39;4.90;86.12
74224;SHT31;62585;49.706;18.216;2023-12-20T13:12:08;4.80;86.50
74224;SHT31;62585;49.706;18.216;2023-12-20T13:14:35;4.82;86.19
74224;SHT31;62585;49.706;18.216;2023-12-20T13:17:02;4.96;86.02
74224;SHT31;62585;49.706;18.216;2023-12-20T13:19:29;4.97;85.53
74224;SHT31;62585;49.706;18.216;2023-12-20T13:21:56;5.07;85.87
74224;SHT31;62585;49.706;18.216;2023-12-20T13:24:22;5.09;85.80
74224;SHT31;62585;49.706;18.216;2023-12-20T13:26:47;5.10;85.42
74224;SHT31;62585;49.706;18.216;2023-12-20T13:29:13;5.13;85.35
74224;SHT31;62585;49.706;18.216;2023-12-20T13:31:39;5.12;85.84
74224;SHT31;62585;49.706;18.216;2023-12-20T13:34:06;5.06;85.99
74224;SHT31;62585;49.706;18.216;2023-12-20T13:36:32;5.07;86.83
74224;SHT31;62585;49.706;18.216;2023-12-20T13:38:58;4.90;87.09
74224;SHT31;62585;49.706;18.216;2023-12-20T13:41:24;4.90;87.42
74224;SHT31;62585;49.706;18.216;2023-12-20T13:43:50;4.82;87.58
74224;SHT31;62585;49.706;18.216;2023-12-20T13:46:16;4.77;87.66
74224;SHT31;62585;49.706;18.216;2023-12-20T13:48:43;4.85;88.09
74224;SHT31;62585;49.706;18.216;2023-12-20T13:51:08;5.00;87.59
74224;SHT31;62585;49.706;18.216;2023-12-20T13:53:36;4.96;87.43
74224;SHT31;62585;49.706;18.216;2023-12-20T13:56:02;4.92;87.28
74224;SHT31;62585;49.706;18.216;2023-12-20T13:58:28;4.97;87.28
74224;SHT31;62585;49.706;18.216;2023-12-20T14:00:53;4.95;87.05
74224;SHT31;62585;49.706;18.216;2023-12-20T14:03:19;4.96;86.95
74224;SHT31;62585;49.706;18.216;2023-12-20T14:05:45;5.04;86.65
74224;SHT31;62585;49.706;18.216;2023-12-20T14:08:11;5.48;85.33
74224;SHT31;62585;49.706;18.216;2023-12-20T14:10:37;5.82;83.32
74224;SHT31;62585;49.706;18.216;2023-12-20T14:13:04;5.89;82.85
74224;SHT31;62585;49.706;18.216;2023-12-20T14:15:31;6.06;82.14
74224;SHT31;62585;49.706;18.216;2023-12-20T14:18:04;6.19;81.34
74224;SHT31;62585;49.706;18.216;2023-12-20T14:20:32;6.05;82.03
74224;SHT31;62585;49.706;18.216;2023-12-20T14:23:03;5.79;82.24
74224;SHT31;62585;49.706;18.216;2023-12-20T14:25:29;5.31;83.71
74224;SHT31;62585;49.706;18.216;2023-12-20T14:27:56;5.16;84.25
74224;SHT31;62585;49.706;18.216;2023-12-20T14:30:22;5.01;84.42
74224;SHT31;62585;49.706;18.216;2023-12-20T14:32:48;5.00;84.42
74224;SHT31;62585;49.706;18.216;2023-12-20T14:35:14;4.93;84.93
74224;SHT31;62585;49.706;18.216;2023-12-20T14:37:40;4.97;84.62
74224;SHT31;62585;49.706;18.216;2023-12-20T14:40:07;4.89;84.92
74224;SHT31;62585;49.706;18.216;2023-12-20T14:42:44;5.06;84.51
74224;SHT31;62585;49.706;18.216;2023-12-20T14:45:10;5.12;84.13
74224;SHT31;62585;49.706;18.216;2023-12-20T14:47:36;5.10;84.30
74224;SHT31;62585;49.706;18.216;2023-12-20T14:50:03;4.89;84.92
74224;SHT31;62585;49.706;18.216;2023-12-20T14:52:30;4.92;85.16
74224;SHT31;62585;49.706;18.216;2023-12-20T14:54:55;4.87;84.88
74224;SHT31;62585;49.706;18.216;2023-12-20T14:57:21;4.93;85.09
74224;SHT31;62585;49.706;18.216;2023-12-20T14:59:47;4.83;85.11
74224;SHT31;62585;49.706;18.216;2023-12-20T15:02:13;4.69;85.50
74224;SHT31;62585;49.706;18.216;2023-12-20T15:04:41;4.68;85.60
74224;SHT31;62585;49.706;18.216;2023-12-20T15:07:07;4.76;85.42
74224;SHT31;62585;49.706;18.216;2023-12-20T15:09:33;4.82;85.45
74224;SHT31;62585;49.706;18.216;2023-12-20T15:12:00;4.79;85.39
74224;SHT31;62585;49.706;18.216;2023-12-20T15:14:26;4.86;85.07
74224;SHT31;62585;49.706;18.216;2023-12-20T15:16:52;4.95;85.02
74224;SHT31;62585;49.706;18.216;2023-12-20T15:19:18;5.04;84.74
74224;SHT31;62585;49.706;18.216;2023-12-20T15:21:44;5.01;84.81
74224;SHT31;62585;49.706;18.216;2023-12-20T15:24:09;5.07;84.95
74224;SHT31;62585;49.706;18.216;2023-12-20T15:26:43;5.10;84.39
74224;SHT31;62585;49.706;18.216;2023-12-20T15:29:09;5.17;84.06